Terminal Aerodrome Forecast
Issued by NWS Buffalo, NY

Home | Current Version | Previous Version | Text Only | Print | Product List | Glossary On
Versions: 1 2 3 4 5 6 7 8 9 10 11 12 13 14 15 16 17 18 19 20 21 22 23 24 25 26 27
000
FTUS41 KBUF 280900 AAA
TAFROC
TAF AMD
KROC 280932Z 2810/2906 24005KT P6SM FEW020 SCT030
     FM281000 31006KT P6SM BKN025
     FM281500 33009KT P6SM BKN035
     FM281800 32010KT P6SM SCT050
     FM290000 29005KT P6SM FEW250=

USA.gov is the U.S. government's official web portal to all federal, state and local government web resources and services.